createdAt,value
2022-10-19T00:00:45.510Z,0.00
2022-10-19T00:01:45.665Z,0.00
2022-10-19T00:02:45.526Z,0.00
2022-10-19T00:03:45.604Z,0.00
2022-10-19T00:04:45.558Z,0.00
2022-10-19T00:05:45.569Z,0.00
2022-10-19T00:06:45.586Z,0.00
2022-10-19T00:07:45.698Z,0.00
2022-10-19T00:08:45.616Z,0.00
2022-10-19T00:09:45.627Z,0.00
2022-10-19T00:10:45.644Z,0.00
2022-10-19T00:11:45.659Z,0.00
2022-10-19T00:12:45.711Z,0.00
2022-10-19T00:13:45.684Z,0.00
2022-10-19T00:14:45.699Z,0.00
2022-10-19T00:15:45.716Z,0.00
2022-10-19T00:16:45.731Z,0.00
2022-10-19T00:17:45.746Z,0.00
2022-10-19T00:18:45.757Z,0.00
2022-10-19T00:19:45.790Z,0.00
2022-10-19T00:20:45.788Z,0.00
2022-10-19T00:21:45.841Z,0.00
2022-10-19T00:22:45.864Z,0.00
2022-10-19T00:23:45.826Z,0.00
2022-10-19T00:24:45.843Z,0.00
2022-10-19T00:25:45.862Z,0.00
2022-10-19T00:26:45.868Z,0.00
2022-10-19T00:27:45.883Z,0.00
2022-10-19T00:28:46.002Z,0.00
2022-10-19T00:29:45.911Z,0.00
2022-10-19T00:30:45.983Z,0.00
2022-10-19T00:31:45.941Z,0.00
2022-10-19T00:32:45.958Z,0.00
2022-10-19T00:33:45.969Z,0.00
2022-10-19T00:34:45.985Z,0.00
2022-10-19T00:35:46.018Z,0.00
2022-10-19T00:36:46.013Z,0.00
2022-10-19T00:37:46.031Z,0.00
2022-10-19T00:38:46.041Z,0.00
2022-10-19T00:39:46.068Z,0.00
2022-10-19T00:40:46.075Z,0.00
2022-10-19T00:41:46.083Z,0.00
2022-10-19T00:42:46.098Z,0.00
2022-10-19T00:43:46.110Z,0.00
2022-10-19T00:44:46.127Z,0.00
2022-10-19T00:45:46.140Z,0.00
2022-10-19T00:46:46.158Z,0.00
2022-10-19T00:47:46.186Z,0.00
2022-10-19T00:48:46.247Z,0.00
2022-10-19T00:49:46.217Z,0.00
2022-10-19T00:50:46.211Z,0.00
2022-10-19T00:51:46.241Z,0.00
2022-10-19T00:52:46.240Z,0.00
2022-10-19T00:53:46.251Z,0.00
2022-10-19T00:54:46.268Z,0.00
2022-10-19T00:55:46.282Z,0.00
2022-10-19T00:56:46.297Z,0.00
2022-10-19T00:57:46.359Z,0.00
2022-10-19T00:58:46.325Z,0.00
2022-10-19T00:59:46.336Z,0.00
2022-10-19T01:00:46.450Z,0.00
2022-10-19T01:01:46.366Z,0.00
2022-10-19T01:02:46.381Z,0.00
2022-10-19T01:03:46.391Z,0.00
2022-10-19T01:04:46.409Z,0.00
2022-10-19T01:05:46.421Z,0.00
2022-10-19T01:06:46.501Z,0.00
2022-10-19T01:07:46.471Z,0.00
2022-10-19T01:08:46.566Z,0.00
2022-10-19T01:09:46.482Z,0.00
2022-10-19T01:10:46.492Z,0.00
2022-10-19T01:11:46.508Z,0.00
2022-10-19T01:12:46.542Z,0.00
2022-10-19T01:13:46.631Z,0.00
2022-10-19T01:14:46.551Z,0.00
2022-10-19T01:15:46.603Z,0.00
2022-10-19T01:16:46.577Z,0.00
2022-10-19T01:17:46.589Z,0.00
2022-10-19T01:18:46.604Z,0.00
2022-10-19T01:19:46.614Z,0.00
2022-10-19T01:20:46.636Z,0.00
2022-10-19T01:21:46.644Z,0.00
2022-10-19T01:22:46.661Z,0.00
2022-10-19T01:23:46.791Z,0.00
2022-10-19T01:24:46.756Z,0.00
2022-10-19T01:25:46.701Z,0.00
2022-10-19T01:26:46.714Z,0.00
2022-10-19T01:27:46.727Z,0.00
2022-10-19T01:28:46.793Z,0.00
2022-10-19T01:29:46.760Z,0.00
2022-10-19T01:30:46.771Z,0.00
2022-10-19T01:31:46.785Z,0.00
2022-10-19T01:32:46.797Z,0.00
2022-10-19T01:33:46.880Z,0.00
2022-10-19T01:34:46.825Z,0.00
2022-10-19T01:35:46.837Z,0.00
2022-10-19T01:36:46.853Z,0.00
2022-10-19T01:37:46.879Z,0.00
2022-10-19T01:38:46.933Z,0.00
2022-10-19T01:39:49.787Z,0.00
2022-10-19T01:40:46.909Z,0.00
2022-10-19T01:41:46.921Z,0.00
2022-10-19T01:42:47.007Z,0.00
2022-10-19T01:43:46.948Z,0.00
2022-10-19T01:44:46.963Z,0.00
2022-10-19T01:45:46.973Z,0.00
2022-10-19T01:46:46.990Z,0.00
2022-10-19T01:47:47.013Z,0.00
2022-10-19T01:48:47.016Z,0.00
2022-10-19T01:49:47.034Z,0.00
2022-10-19T01:50:47.097Z,0.00
2022-10-19T01:51:47.092Z,0.00
2022-10-19T01:52:47.076Z,0.00
2022-10-19T01:53:47.084Z,0.00
2022-10-19T01:54:47.098Z,0.00
2022-10-19T01:55:47.129Z,0.00
2022-10-19T01:56:47.127Z,0.00
2022-10-19T01:57:47.138Z,0.00
2022-10-19T01:58:47.156Z,0.00
2022-10-19T01:59:47.168Z,0.00
2022-10-19T02:00:47.343Z,0.00
2022-10-19T02:01:47.194Z,0.00
2022-10-19T02:02:47.207Z,0.00
2022-10-19T02:03:47.219Z,0.00
2022-10-19T02:04:47.248Z,0.00
2022-10-19T02:05:47.247Z,0.00
2022-10-19T02:06:47.265Z,0.00
2022-10-19T02:07:47.277Z,0.00
2022-10-19T02:08:47.390Z,0.00
2022-10-19T02:09:47.302Z,0.00
2022-10-19T02:10:47.319Z,0.00
2022-10-19T02:11:49.620Z,0.00
2022-10-19T02:12:47.347Z,0.00
2022-10-19T02:13:47.356Z,0.00
2022-10-19T02:14:47.371Z,0.00
2022-10-19T02:15:47.387Z,0.00
2022-10-19T02:16:47.400Z,0.00
2022-10-19T02:17:47.414Z,0.00
2022-10-19T02:18:47.427Z,0.00
2022-10-19T02:19:47.445Z,0.00
2022-10-19T02:20:47.458Z,0.00
2022-10-19T02:21:47.467Z,0.00
2022-10-19T02:22:47.481Z,0.00
2022-10-19T02:23:49.349Z,0.00
2022-10-19T02:24:47.508Z,0.00
2022-10-19T02:25:47.521Z,0.00
2022-10-19T02:26:47.536Z,0.00
2022-10-19T02:27:47.569Z,0.00
2022-10-19T02:28:47.568Z,0.00
2022-10-19T02:29:47.577Z,0.00
2022-10-19T02:30:47.594Z,0.00
2022-10-19T02:31:47.607Z,0.00
2022-10-19T02:32:47.621Z,0.00
2022-10-19T02:33:47.631Z,0.00
2022-10-19T02:34:47.645Z,0.00
2022-10-19T02:35:47.658Z,0.00
2022-10-19T02:36:47.676Z,0.00
2022-10-19T02:37:47.691Z,0.00
2022-10-19T02:38:47.701Z,0.00
2022-10-19T02:39:47.714Z,0.00
2022-10-19T02:40:47.728Z,0.00
2022-10-19T02:41:47.742Z,0.00
2022-10-19T02:42:47.754Z,0.00
2022-10-19T02:43:47.791Z,0.00
2022-10-19T02:44:47.806Z,0.00
2022-10-19T02:45:47.801Z,0.00
2022-10-19T02:46:47.807Z,0.00
2022-10-19T02:47:47.827Z,0.00
2022-10-19T02:48:47.848Z,0.00
2022-10-19T02:49:47.852Z,0.00
2022-10-19T02:50:47.862Z,0.00
2022-10-19T02:51:47.894Z,0.00
2022-10-19T02:52:47.908Z,0.00
2022-10-19T02:53:47.917Z,0.00
2022-10-19T02:54:47.916Z,0.00
2022-10-19T02:55:47.933Z,0.00
2022-10-19T02:56:47.949Z,0.00
2022-10-19T02:57:47.962Z,0.00
2022-10-19T02:58:47.979Z,0.00
2022-10-19T02:59:48.010Z,0.00
2022-10-19T03:00:48.061Z,0.00
2022-10-19T03:01:48.017Z,0.00
2022-10-19T03:02:48.028Z,0.00
2022-10-19T03:03:48.049Z,0.00
2022-10-19T03:05:48.070Z,0.00
2022-10-19T03:06:48.082Z,0.00
2022-10-19T03:07:48.096Z,0.00
2022-10-19T03:08:48.110Z,0.00
2022-10-19T03:09:48.130Z,0.00
2022-10-19T03:10:48.136Z,0.00
2022-10-19T03:11:48.155Z,0.00
2022-10-19T03:12:48.163Z,0.00
2022-10-19T03:14:48.189Z,0.00
2022-10-19T03:15:48.229Z,0.00
2022-10-19T03:16:48.217Z,0.00
2022-10-19T03:17:48.235Z,0.00
2022-10-19T03:18:48.262Z,0.00
2022-10-19T03:19:48.267Z,0.00
2022-10-19T03:20:48.274Z,0.00
2022-10-19T03:21:48.290Z,0.00
2022-10-19T03:22:48.342Z,0.00
2022-10-19T03:23:48.329Z,0.00
2022-10-19T03:24:48.327Z,0.00
2022-10-19T03:25:48.342Z,0.00
2022-10-19T03:26:48.352Z,0.00
2022-10-19T03:27:48.368Z,0.00
2022-10-19T03:28:48.418Z,0.00
2022-10-19T03:29:48.445Z,0.00
2022-10-19T03:30:48.408Z,0.00
2022-10-19T03:31:48.443Z,0.00
2022-10-19T03:32:48.434Z,0.00
2022-10-19T03:33:48.450Z,0.00
2022-10-19T03:34:48.463Z,0.00
2022-10-19T03:35:48.486Z,0.00
2022-10-19T03:36:48.496Z,0.00
2022-10-19T03:37:48.506Z,0.00
2022-10-19T03:38:48.518Z,0.00
2022-10-19T03:39:48.631Z,0.00
2022-10-19T03:40:48.544Z,0.00
2022-10-19T03:41:48.561Z,0.00
2022-10-19T03:42:48.572Z,0.00
2022-10-19T03:43:48.635Z,0.00
2022-10-19T03:44:48.598Z,0.00
2022-10-19T03:45:48.616Z,0.00
2022-10-19T03:46:48.623Z,0.00
2022-10-19T03:47:48.660Z,0.00
2022-10-19T03:48:48.651Z,0.00
2022-10-19T03:49:48.676Z,0.00
2022-10-19T03:50:48.681Z,0.00
2022-10-19T03:51:48.699Z,0.00
2022-10-19T03:52:48.727Z,0.00
2022-10-19T03:53:48.721Z,0.00
2022-10-19T03:54:48.731Z,0.00
2022-10-19T03:55:48.748Z,0.00
2022-10-19T03:56:48.759Z,0.00
2022-10-19T03:57:48.786Z,0.00
2022-10-19T03:58:48.786Z,0.00
2022-10-19T03:59:48.799Z,0.00
2022-10-19T04:00:48.877Z,0.00
2022-10-19T04:01:48.828Z,0.00
2022-10-19T04:02:48.840Z,0.00
2022-10-19T04:03:48.876Z,0.00
2022-10-19T04:04:48.868Z,0.00
2022-10-19T04:05:48.882Z,0.00
2022-10-19T04:06:48.899Z,0.00
2022-10-19T04:07:48.908Z,0.00
2022-10-19T04:08:48.921Z,0.00
2022-10-19T04:09:48.937Z,0.00
2022-10-19T04:10:48.946Z,0.00
2022-10-19T04:11:48.962Z,0.00
2022-10-19T04:12:53.678Z,0.00
2022-10-19T04:13:48.988Z,0.00
2022-10-19T04:14:57.633Z,0.00
2022-10-19T04:15:49.015Z,0.00
2022-10-19T04:16:49.028Z,0.00
2022-10-19T04:17:49.041Z,0.00
2022-10-19T04:18:49.055Z,0.00
2022-10-19T04:19:49.093Z,0.00
2022-10-19T04:20:49.080Z,0.00
2022-10-19T04:21:49.097Z,0.00
2022-10-19T04:22:49.106Z,0.00
2022-10-19T04:23:49.122Z,0.00
2022-10-19T04:24:49.142Z,0.00
2022-10-19T04:25:49.150Z,0.00
2022-10-19T04:26:49.161Z,0.00
2022-10-19T04:27:49.174Z,0.00
2022-10-19T04:28:49.249Z,0.00
2022-10-19T04:29:49.209Z,0.00
2022-10-19T04:30:49.214Z,0.00
2022-10-19T04:31:49.229Z,0.00
2022-10-19T04:32:49.241Z,0.00
2022-10-19T04:33:49.265Z,0.00
2022-10-19T04:34:49.271Z,0.00
2022-10-19T04:35:49.300Z,0.00
2022-10-19T04:36:49.293Z,0.00
2022-10-19T04:37:49.311Z,0.00
2022-10-19T04:38:49.320Z,0.00
2022-10-19T04:39:49.436Z,0.00
2022-10-19T04:40:49.345Z,0.00
2022-10-19T04:41:49.364Z,0.00
2022-10-19T04:42:49.373Z,0.00
2022-10-19T04:43:49.385Z,0.00
2022-10-19T04:44:49.399Z,0.00
2022-10-19T04:45:49.415Z,0.00
2022-10-19T04:46:49.424Z,0.00
2022-10-19T04:47:49.441Z,0.00
2022-10-19T04:48:49.458Z,0.00
2022-10-19T04:49:49.467Z,0.00
2022-10-19T04:50:49.575Z,0.00
2022-10-19T04:51:49.511Z,0.00
2022-10-19T04:52:49.504Z,0.00
2022-10-19T04:53:49.521Z,0.00
2022-10-19T04:54:49.533Z,0.00
2022-10-19T04:55:49.594Z,0.00
2022-10-19T04:56:49.557Z,0.00
2022-10-19T04:57:49.569Z,0.00
2022-10-19T04:58:49.583Z,0.00
2022-10-19T04:59:49.597Z,0.00
2022-10-19T05:00:49.638Z,0.00
2022-10-19T05:01:49.649Z,0.00
2022-10-19T05:02:49.665Z,0.00
2022-10-19T05:03:49.721Z,0.00
2022-10-19T05:04:49.662Z,0.00
2022-10-19T05:05:49.687Z,0.00
2022-10-19T05:06:49.685Z,0.00
2022-10-19T05:07:49.719Z,0.00
2022-10-19T05:08:49.716Z,0.00
2022-10-19T05:09:49.726Z,0.00
2022-10-19T05:10:49.737Z,0.00
2022-10-19T05:11:49.752Z,0.00
2022-10-19T05:12:49.771Z,0.00
2022-10-19T05:13:49.787Z,0.00
2022-10-19T05:14:49.788Z,0.00
2022-10-19T05:15:49.803Z,0.00
2022-10-19T05:16:49.814Z,0.00
2022-10-19T05:17:49.829Z,0.00
2022-10-19T05:18:49.848Z,0.00
2022-10-19T05:19:49.857Z,0.00
2022-10-19T05:20:49.867Z,0.00
2022-10-19T05:21:49.981Z,0.00
2022-10-19T05:22:49.893Z,0.00
2022-10-19T05:23:49.931Z,0.00
2022-10-19T05:24:53.285Z,0.00
2022-10-19T05:25:49.937Z,0.00
2022-10-19T05:26:49.948Z,0.00
2022-10-19T05:27:49.959Z,0.00
2022-10-19T05:28:50.088Z,0.00
2022-10-19T05:29:49.984Z,0.00
2022-10-19T05:30:49.993Z,0.00
2022-10-19T05:31:50.009Z,0.00
2022-10-19T05:32:50.030Z,0.00
2022-10-19T05:33:50.035Z,0.00
2022-10-19T05:34:50.045Z,0.00
2022-10-19T05:35:50.066Z,0.00
2022-10-19T05:36:50.075Z,0.00
2022-10-19T05:37:50.087Z,4.00
2022-10-19T05:38:50.103Z,0.00
2022-10-19T05:39:50.133Z,4.00
2022-10-19T05:40:52.973Z,0.00
2022-10-19T05:41:50.139Z,0.00
2022-10-19T05:42:50.152Z,4.00
2022-10-19T05:43:50.164Z,4.00
2022-10-19T05:44:50.179Z,0.00
2022-10-19T05:45:50.215Z,0.00
2022-10-19T05:46:50.204Z,4.00
2022-10-19T05:47:50.222Z,4.00
2022-10-19T05:48:50.233Z,4.00
2022-10-19T05:49:50.244Z,4.00
2022-10-19T05:50:50.251Z,4.00
2022-10-19T05:51:50.266Z,8.00
2022-10-19T05:52:50.279Z,8.00
2022-10-19T05:53:50.396Z,4.00
2022-10-19T05:54:50.309Z,4.00
2022-10-19T05:55:50.337Z,8.00
2022-10-19T05:56:50.330Z,8.00
2022-10-19T05:57:50.346Z,8.00
2022-10-19T05:58:50.363Z,12.00
2022-10-19T05:59:50.383Z,12.00
2022-10-19T06:00:50.385Z,12.00
2022-10-19T06:01:50.469Z,8.00
2022-10-19T06:02:50.406Z,12.00
2022-10-19T06:03:50.423Z,12.00
2022-10-19T06:04:50.436Z,12.00
2022-10-19T06:05:50.448Z,12.00
2022-10-19T06:06:50.461Z,16.00
2022-10-19T06:07:50.478Z,16.00
2022-10-19T06:08:50.488Z,16.00
2022-10-19T06:09:50.501Z,16.00
2022-10-19T06:10:50.511Z,20.00
2022-10-19T06:11:50.561Z,16.00
2022-10-19T06:12:50.537Z,20.00
2022-10-19T06:13:50.552Z,20.00
2022-10-19T06:14:50.573Z,20.00
2022-10-19T06:15:50.601Z,20.00
2022-10-19T06:16:50.690Z,20.00
2022-10-19T06:17:50.602Z,20.00
2022-10-19T06:18:50.616Z,24.00
2022-10-19T06:19:50.632Z,24.00
2022-10-19T06:20:50.642Z,20.00
2022-10-19T06:21:50.656Z,24.00
2022-10-19T06:22:50.664Z,24.00
2022-10-19T06:23:50.682Z,28.00
2022-10-19T06:24:50.692Z,24.00
2022-10-19T06:25:50.715Z,24.00
2022-10-19T06:26:50.768Z,28.00
2022-10-19T06:27:50.855Z,28.00
2022-10-19T06:28:50.744Z,28.00
2022-10-19T06:29:50.758Z,28.00
2022-10-19T06:30:50.817Z,28.00
2022-10-19T06:31:50.836Z,28.00
2022-10-19T06:32:50.939Z,28.00
2022-10-19T06:33:50.874Z,32.00
2022-10-19T06:34:53.028Z,28.00
2022-10-19T06:35:50.836Z,28.00
2022-10-19T06:36:50.848Z,32.00
2022-10-19T06:37:50.864Z,32.00
2022-10-19T06:38:50.874Z,32.00
2022-10-19T06:39:50.951Z,28.00
2022-10-19T06:40:50.909Z,32.00
2022-10-19T06:41:50.916Z,32.00
2022-10-19T06:42:50.927Z,32.00
2022-10-19T06:43:50.963Z,36.00
2022-10-19T06:44:50.959Z,32.00
2022-10-19T06:45:50.977Z,32.00
2022-10-19T06:46:51.032Z,36.00
2022-10-19T06:47:50.996Z,36.00
2022-10-19T06:48:51.005Z,36.00
2022-10-19T06:49:51.020Z,36.00
2022-10-19T06:50:51.043Z,36.00
2022-10-19T06:51:51.046Z,36.00
2022-10-19T06:52:51.058Z,36.00
2022-10-19T06:53:52.926Z,36.00
2022-10-19T06:54:51.083Z,36.00
2022-10-19T06:55:51.103Z,40.00
2022-10-19T06:56:51.129Z,36.00
2022-10-19T06:57:51.123Z,40.00
2022-10-19T06:58:51.139Z,40.00
2022-10-19T06:59:52.935Z,40.00
2022-10-19T07:00:51.220Z,40.00
2022-10-19T07:01:51.177Z,40.00
2022-10-19T07:02:51.186Z,40.00
2022-10-19T07:03:51.197Z,40.00
2022-10-19T07:04:51.217Z,40.00
2022-10-19T07:05:51.227Z,40.00
2022-10-19T07:06:51.240Z,40.00
2022-10-19T07:07:51.317Z,44.00
2022-10-19T07:08:51.267Z,40.00
2022-10-19T07:09:51.278Z,40.00
2022-10-19T07:10:51.291Z,44.00
2022-10-19T07:11:51.354Z,40.00
2022-10-19T07:12:51.336Z,44.00
2022-10-19T07:13:51.335Z,44.00
2022-10-19T07:14:51.343Z,44.00
2022-10-19T07:15:51.376Z,44.00
2022-10-19T07:16:51.371Z,48.00
2022-10-19T07:17:51.390Z,44.00
2022-10-19T07:18:51.396Z,44.00
2022-10-19T07:19:51.405Z,44.00
2022-10-19T07:20:51.429Z,44.00
2022-10-19T07:21:51.441Z,48.00
2022-10-19T07:22:51.517Z,44.00
2022-10-19T07:23:51.460Z,48.00
2022-10-19T07:24:51.471Z,48.00
2022-10-19T07:25:51.484Z,44.00
2022-10-19T07:26:51.504Z,48.00
2022-10-19T07:27:51.507Z,48.00
2022-10-19T07:28:51.534Z,48.00
2022-10-19T07:29:51.534Z,48.00
2022-10-19T07:30:51.548Z,48.00
2022-10-19T07:31:51.575Z,48.00
2022-10-19T07:32:51.574Z,52.00
2022-10-19T07:33:51.586Z,56.00
2022-10-19T07:34:51.600Z,84.00
2022-10-19T07:35:51.614Z,120.00
2022-10-19T07:36:51.626Z,144.00
2022-10-19T07:37:51.645Z,148.00
2022-10-19T07:38:51.653Z,148.00
2022-10-19T07:39:51.664Z,152.00
2022-10-19T07:40:51.677Z,160.00
2022-10-19T07:41:51.692Z,160.00
2022-10-19T07:42:51.703Z,160.00
2022-10-19T07:43:51.718Z,164.00
2022-10-19T07:44:51.732Z,164.00
2022-10-19T07:45:51.743Z,168.00
2022-10-19T07:46:51.764Z,172.00
2022-10-19T07:47:51.786Z,176.00
2022-10-19T07:48:51.786Z,176.00
2022-10-19T07:49:51.797Z,176.00
2022-10-19T07:50:51.829Z,180.00
2022-10-19T07:51:51.850Z,184.00
2022-10-19T07:52:51.846Z,184.00
2022-10-19T07:53:51.855Z,184.00
2022-10-19T07:54:51.864Z,188.00
2022-10-19T07:55:51.876Z,192.00
2022-10-19T07:56:51.899Z,192.00
2022-10-19T07:57:51.906Z,196.00
2022-10-19T07:58:51.921Z,196.00
2022-10-19T07:59:51.931Z,192.00
2022-10-19T08:00:51.946Z,196.00
2022-10-19T08:01:51.977Z,204.00
2022-10-19T08:03:31.254Z,208.00
2022-10-19T08:05:02.285Z,212.00
2022-10-19T08:05:52.022Z,216.00
2022-10-19T08:06:52.130Z,216.00
2022-10-19T08:07:52.041Z,220.00
2022-10-19T08:08:52.146Z,220.00
2022-10-19T08:09:53.842Z,224.00
2022-10-19T08:10:52.084Z,228.00
2022-10-19T08:11:52.097Z,232.00
2022-10-19T08:12:52.161Z,232.00
2022-10-19T08:13:52.125Z,236.00
2022-10-19T08:14:52.138Z,240.00
2022-10-19T08:15:52.164Z,240.00
2022-10-19T08:16:52.178Z,244.00
2022-10-19T08:17:52.180Z,248.00
2022-10-19T08:18:52.195Z,248.00
2022-10-19T08:19:52.225Z,252.00
2022-10-19T08:20:52.223Z,256.00
2022-10-19T08:21:52.237Z,256.00
2022-10-19T08:22:56.388Z,260.00
2022-10-19T08:23:52.365Z,260.00
2022-10-19T08:24:52.278Z,268.00
2022-10-19T08:25:52.293Z,272.00
2022-10-19T08:26:52.310Z,272.00
2022-10-19T08:27:52.319Z,276.00
2022-10-19T08:28:52.343Z,276.00
2022-10-19T08:29:52.349Z,284.00
2022-10-19T08:30:52.364Z,284.00
2022-10-19T08:31:52.379Z,288.00
2022-10-19T08:32:52.395Z,288.00
2022-10-19T08:33:52.407Z,292.00
2022-10-19T08:34:52.425Z,296.00
2022-10-19T08:35:52.465Z,300.00
2022-10-19T08:36:52.454Z,300.00
2022-10-19T08:37:52.931Z,300.00
2022-10-19T08:38:52.481Z,308.00
2022-10-19T08:39:52.493Z,308.00
2022-10-19T08:40:52.514Z,312.00
2022-10-19T08:41:52.525Z,312.00
2022-10-19T08:42:52.538Z,316.00
2022-10-19T08:43:52.553Z,320.00
2022-10-19T08:44:52.570Z,324.00
2022-10-19T08:45:52.581Z,328.00
2022-10-19T08:46:52.599Z,328.00
2022-10-19T08:47:52.617Z,336.00
2022-10-19T08:48:52.655Z,340.00
2022-10-19T08:49:52.653Z,348.00
2022-10-19T08:50:52.657Z,352.00
2022-10-19T08:51:52.689Z,352.00
2022-10-19T08:52:52.697Z,360.00
2022-10-19T08:53:52.701Z,360.00
2022-10-19T08:54:52.718Z,364.00
2022-10-19T08:55:52.734Z,376.00
2022-10-19T08:56:52.750Z,380.00
2022-10-19T08:57:52.767Z,384.00
2022-10-19T08:58:52.782Z,388.00
2022-10-19T08:59:52.790Z,400.00
2022-10-19T09:00:52.927Z,404.00
2022-10-19T09:01:52.820Z,412.00
2022-10-19T09:02:52.850Z,420.00
2022-10-19T09:03:56.501Z,432.00
2022-10-19T09:04:52.870Z,440.00
2022-10-19T09:05:52.883Z,444.00
2022-10-19T09:06:52.896Z,452.00
2022-10-19T09:07:52.947Z,464.00
2022-10-19T09:08:53.008Z,468.00
2022-10-19T09:09:52.944Z,480.00
2022-10-19T09:10:52.959Z,484.00
2022-10-19T09:11:52.975Z,496.00
2022-10-19T09:12:55.151Z,504.00
2022-10-19T09:14:04.760Z,516.00
2022-10-19T09:14:53.020Z,524.00
2022-10-19T09:15:53.066Z,532.00
2022-10-19T09:16:53.057Z,544.00
2022-10-19T09:17:53.067Z,520.00
2022-10-19T09:19:53.097Z,536.00
2022-10-19T09:20:53.134Z,576.00
2022-10-19T09:21:53.131Z,584.00
2022-10-19T09:22:53.148Z,588.00
2022-10-19T09:23:53.230Z,592.00
2022-10-19T09:24:53.178Z,600.00
2022-10-19T09:25:53.194Z,608.00
2022-10-19T09:26:53.213Z,612.00
2022-10-19T09:27:53.260Z,616.00
2022-10-19T09:28:53.298Z,624.00
2022-10-19T09:29:53.266Z,628.00
2022-10-19T09:30:53.276Z,636.00
2022-10-19T09:31:53.359Z,644.00
2022-10-19T09:32:53.321Z,656.00
2022-10-19T09:33:53.326Z,664.00
2022-10-19T09:34:53.347Z,672.00
2022-10-19T09:35:53.457Z,680.00
2022-10-19T09:36:53.372Z,688.00
2022-10-19T09:37:53.395Z,696.00
2022-10-19T09:38:53.411Z,704.00
2022-10-19T09:39:54.938Z,716.00
2022-10-19T09:40:53.442Z,724.00
2022-10-19T09:41:53.458Z,732.00
2022-10-19T09:42:53.475Z,732.00
2022-10-19T09:43:53.488Z,712.00
2022-10-19T09:44:53.511Z,732.00
2022-10-19T09:45:53.634Z,736.00
2022-10-19T09:46:53.543Z,768.00
2022-10-19T09:47:53.557Z,780.00
2022-10-19T09:48:53.590Z,780.00
2022-10-19T09:49:53.587Z,732.00
2022-10-19T09:50:53.604Z,764.00
2022-10-19T09:51:53.621Z,796.00
2022-10-19T09:52:53.639Z,808.00
2022-10-19T09:53:53.654Z,812.00
2022-10-19T09:54:53.681Z,824.00
2022-10-19T09:55:53.711Z,828.00
2022-10-19T09:56:53.708Z,832.00
2022-10-19T09:57:53.721Z,840.00
2022-10-19T09:58:53.742Z,840.00
2022-10-19T09:59:53.755Z,840.00
2022-10-19T10:00:53.775Z,860.00
2022-10-19T10:01:53.920Z,860.00
2022-10-19T10:02:53.807Z,876.00
2022-10-19T10:03:55.923Z,876.00
2022-10-19T10:04:53.842Z,884.00
2022-10-19T10:05:53.858Z,892.00
2022-10-19T10:06:53.889Z,896.00
2022-10-19T10:07:53.893Z,904.00
2022-10-19T10:08:53.959Z,912.00
2022-10-19T10:09:53.933Z,916.00
2022-10-19T10:10:53.961Z,920.00
2022-10-19T10:12:53.983Z,932.00
2022-10-19T10:13:53.999Z,928.00
2022-10-19T10:14:54.018Z,936.00
2022-10-19T10:15:54.036Z,940.00
2022-10-19T10:16:54.056Z,944.00
2022-10-19T10:17:54.071Z,952.00
2022-10-19T10:18:54.090Z,952.00
2022-10-19T10:19:54.104Z,952.00
2022-10-19T10:20:54.156Z,936.00
2022-10-19T10:21:54.141Z,944.00
2022-10-19T10:22:54.165Z,948.00
2022-10-19T10:23:54.179Z,944.00
2022-10-19T10:24:54.198Z,928.00
2022-10-19T10:25:54.219Z,928.00
2022-10-19T10:26:54.234Z,940.00
2022-10-19T10:27:54.270Z,936.00
2022-10-19T10:28:57.825Z,956.00
2022-10-19T10:29:54.287Z,960.00
2022-10-19T10:30:54.309Z,980.00
2022-10-19T10:31:54.326Z,988.00
2022-10-19T10:32:54.421Z,980.00
2022-10-19T10:33:54.377Z,988.00
2022-10-19T10:34:57.072Z,984.00
2022-10-19T10:35:54.406Z,1008.00
2022-10-19T10:36:54.421Z,1012.00
2022-10-19T10:37:54.434Z,1008.00
2022-10-19T10:38:54.459Z,1004.00
2022-10-19T10:39:55.847Z,1020.00
2022-10-19T10:40:54.489Z,1016.00
2022-10-19T10:41:54.509Z,984.00
2022-10-19T10:42:54.526Z,1008.00
2022-10-19T10:43:54.562Z,1000.00
2022-10-19T10:44:54.563Z,980.00
2022-10-19T10:45:54.581Z,980.00
2022-10-19T10:46:54.601Z,952.00
2022-10-19T10:47:54.650Z,992.00
2022-10-19T10:48:54.638Z,992.00
2022-10-19T10:49:54.653Z,988.00
2022-10-19T10:50:54.675Z,972.00
2022-10-19T10:51:54.692Z,1000.00
2022-10-19T10:52:54.711Z,1020.00
2022-10-19T10:53:54.756Z,1008.00
2022-10-19T10:54:54.746Z,1020.00
2022-10-19T10:55:54.769Z,1036.00
2022-10-19T10:56:54.789Z,1044.00
2022-10-19T10:57:54.803Z,1036.00
2022-10-19T10:58:54.822Z,1032.00
2022-10-19T10:59:54.859Z,1024.00
2022-10-19T11:00:54.860Z,1016.00
2022-10-19T11:01:54.915Z,1048.00
2022-10-19T11:02:54.902Z,1020.00
2022-10-19T11:03:54.925Z,1040.00
2022-10-19T11:04:54.940Z,1048.00
2022-10-19T11:05:54.953Z,1048.00
2022-10-19T11:06:54.979Z,1056.00
2022-10-19T11:07:54.989Z,1060.00
2022-10-19T11:08:55.133Z,1044.00
2022-10-19T11:09:55.040Z,1004.00
2022-10-19T11:10:55.052Z,984.00
2022-10-19T11:11:55.065Z,988.00
2022-10-19T11:12:55.085Z,968.00
2022-10-19T11:13:55.106Z,972.00
2022-10-19T11:14:55.124Z,1040.00
2022-10-19T11:15:55.161Z,1040.00
2022-10-19T11:16:55.161Z,1072.00
2022-10-19T11:17:55.181Z,940.00
2022-10-19T11:18:55.203Z,996.00
2022-10-19T11:19:55.229Z,1076.00
2022-10-19T11:20:55.240Z,1056.00
2022-10-19T11:21:55.262Z,1068.00
2022-10-19T11:22:55.274Z,1072.00
2022-10-19T11:23:55.304Z,1080.00
2022-10-19T11:24:55.321Z,1072.00
2022-10-19T11:25:55.338Z,1060.00
2022-10-19T11:26:55.351Z,1084.00
2022-10-19T11:27:55.377Z,1072.00
2022-10-19T11:28:55.401Z,1152.00
2022-10-19T11:29:55.416Z,1148.00
2022-10-19T11:30:55.432Z,1148.00
2022-10-19T11:31:55.470Z,1164.00
2022-10-19T11:32:55.471Z,1128.00
2022-10-19T11:33:55.491Z,1124.00
2022-10-19T11:34:55.508Z,1124.00
2022-10-19T11:35:55.528Z,1124.00
2022-10-19T11:36:55.550Z,1112.00
2022-10-19T11:38:17.988Z,1104.00
2022-10-19T11:38:55.585Z,1144.00
2022-10-19T11:39:55.610Z,1208.00
2022-10-19T11:41:55.655Z,1196.00
2022-10-19T11:42:55.673Z,1156.00
2022-10-19T11:43:55.702Z,1092.00
2022-10-19T11:44:55.742Z,1092.00
2022-10-19T11:45:55.723Z,1116.00
2022-10-19T11:46:55.743Z,1140.00
2022-10-19T11:47:55.783Z,1168.00
2022-10-19T11:48:55.786Z,1168.00
2022-10-19T11:49:55.858Z,1120.00
2022-10-19T11:50:58.909Z,1120.00
2022-10-19T11:51:55.840Z,1136.00
2022-10-19T11:52:55.861Z,1212.00
2022-10-19T11:53:55.880Z,1016.00
2022-10-19T11:54:55.913Z,1012.00
2022-10-19T11:55:55.918Z,1028.00
2022-10-19T11:57:03.936Z,956.00
2022-10-19T11:57:55.958Z,1048.00
2022-10-19T11:58:55.977Z,960.00
2022-10-19T12:00:03.580Z,984.00
2022-10-19T12:00:56.034Z,1028.00
2022-10-19T12:01:56.071Z,1052.00
2022-10-19T12:02:56.708Z,956.00
2022-10-19T12:03:56.105Z,1048.00
2022-10-19T12:04:56.117Z,1040.00
2022-10-19T12:05:56.225Z,1000.00
2022-10-19T12:06:56.139Z,1032.00
2022-10-19T12:07:56.153Z,1068.00
2022-10-19T12:08:56.502Z,1080.00
2022-10-19T12:09:56.193Z,1068.00
2022-10-19T12:10:56.210Z,1120.00
2022-10-19T12:11:56.233Z,1216.00
2022-10-19T12:12:56.251Z,1208.00
2022-10-19T12:13:56.272Z,1212.00
2022-10-19T12:14:56.287Z,1204.00
2022-10-19T12:15:56.310Z,1196.00
2022-10-19T12:16:56.329Z,1208.00
2022-10-19T12:17:56.354Z,1196.00
2022-10-19T12:18:56.369Z,1196.00
2022-10-19T12:19:56.417Z,1196.00
2022-10-19T12:20:56.407Z,1180.00
2022-10-19T12:21:56.432Z,1140.00
2022-10-19T12:22:56.448Z,1160.00
2022-10-19T12:23:56.471Z,1164.00
2022-10-19T12:24:56.490Z,1176.00
2022-10-19T12:25:56.513Z,1208.00
2022-10-19T12:26:56.527Z,1212.00
2022-10-19T12:27:56.552Z,1212.00
2022-10-19T12:28:56.570Z,1208.00
2022-10-19T12:29:56.621Z,1184.00
2022-10-19T12:30:56.612Z,1200.00
2022-10-19T12:31:56.632Z,1200.00
2022-10-19T12:32:56.664Z,1200.00
2022-10-19T12:33:56.673Z,1192.00
2022-10-19T12:34:56.689Z,1208.00
2022-10-19T12:35:56.734Z,1224.00
2022-10-19T12:36:56.781Z,1228.00
2022-10-19T12:37:56.754Z,1228.00
2022-10-19T12:39:00.164Z,1208.00
2022-10-19T12:39:56.801Z,1236.00
2022-10-19T12:40:56.817Z,1248.00
2022-10-19T12:41:56.837Z,1232.00
2022-10-19T12:42:56.861Z,1224.00
2022-10-19T12:43:56.876Z,1208.00
2022-10-19T12:44:58.787Z,1168.00
2022-10-19T12:45:56.919Z,1172.00
2022-10-19T12:47:00.054Z,1220.00
2022-10-19T12:47:56.960Z,1216.00
2022-10-19T12:48:56.979Z,1232.00
2022-10-19T12:49:57.002Z,1256.00
2022-10-19T12:50:57.021Z,1208.00
2022-10-19T12:51:57.060Z,1232.00
2022-10-19T12:52:57.065Z,1220.00
2022-10-19T12:53:57.087Z,1200.00
2022-10-19T12:54:57.108Z,1184.00
2022-10-19T12:55:57.132Z,1112.00